sensor_id;sensor_type;location;lat;lon;timestamp;P1;durP1;ratioP1;P2;durP2;ratioP2
26906;SDS011;14472;56.880;16.658;2023-05-07T00:00:20;3.57;;;2.20;;
26906;SDS011;14472;56.880;16.658;2023-05-07T00:02:46;2.27;;;2.00;;
26906;SDS011;14472;56.880;16.658;2023-05-07T00:05:12;3.53;;;2.07;;
26906;SDS011;14472;56.880;16.658;2023-05-07T00:07:38;3.30;;;2.10;;
26906;SDS011;14472;56.880;16.658;2023-05-07T00:10:04;3.13;;;1.83;;
26906;SDS011;14472;56.880;16.658;2023-05-07T00:12:31;4.57;;;2.10;;
26906;SDS011;14472;56.880;16.658;2023-05-07T00:14:59;4.87;;;2.03;;
26906;SDS011;14472;56.880;16.658;2023-05-07T00:17:26;2.33;;;1.90;;
26906;SDS011;14472;56.880;16.658;2023-05-07T00:19:52;3.77;;;1.80;;
26906;SDS011;14472;56.880;16.658;2023-05-07T00:22:18;2.60;;;1.90;;
26906;SDS011;14472;56.880;16.658;2023-05-07T00:24:43;2.50;;;2.20;;
26906;SDS011;14472;56.880;16.658;2023-05-07T00:27:09;2.03;;;1.63;;
26906;SDS011;14472;56.880;16.658;2023-05-07T00:29:35;2.47;;;1.80;;
26906;SDS011;14472;56.880;16.658;2023-05-07T00:32:01;1.90;;;1.80;;
26906;SDS011;14472;56.880;16.658;2023-05-07T00:34:27;2.77;;;2.00;;
26906;SDS011;14472;56.880;16.658;2023-05-07T00:36:56;4.30;;;1.87;;
26906;SDS011;14472;56.880;16.658;2023-05-07T00:39:21;5.10;;;2.20;;
26906;SDS011;14472;56.880;16.658;2023-05-07T00:41:50;3.40;;;2.00;;
26906;SDS011;14472;56.880;16.658;2023-05-07T00:44:16;2.40;;;1.93;;
26906;SDS011;14472;56.880;16.658;2023-05-07T00:46:43;2.30;;;1.70;;
26906;SDS011;14472;56.880;16.658;2023-05-07T00:49:09;2.73;;;1.90;;
26906;SDS011;14472;56.880;16.658;2023-05-07T00:51:36;2.43;;;1.70;;
26906;SDS011;14472;56.880;16.658;2023-05-07T00:54:02;3.27;;;1.80;;
26906;SDS011;14472;56.880;16.658;2023-05-07T00:56:28;2.50;;;2.00;;
26906;SDS011;14472;56.880;16.658;2023-05-07T00:58:57;2.90;;;2.10;;
26906;SDS011;14472;56.880;16.658;2023-05-07T01:01:23;4.97;;;2.07;;
26906;SDS011;14472;56.880;16.658;2023-05-07T01:03:48;3.67;;;2.17;;
26906;SDS011;14472;56.880;16.658;2023-05-07T01:06:17;2.13;;;1.83;;
26906;SDS011;14472;56.880;16.658;2023-05-07T01:08:44;2.30;;;2.00;;
26906;SDS011;14472;56.880;16.658;2023-05-07T01:11:10;2.63;;;2.00;;
26906;SDS011;14472;56.880;16.658;2023-05-07T01:13:36;3.13;;;2.03;;
26906;SDS011;14472;56.880;16.658;2023-05-07T01:16:10;3.90;;;2.23;;
26906;SDS011;14472;56.880;16.658;2023-05-07T01:18:36;2.53;;;2.33;;
26906;SDS011;14472;56.880;16.658;2023-05-07T01:21:04;3.47;;;2.30;;
26906;SDS011;14472;56.880;16.658;2023-05-07T01:23:30;3.10;;;2.00;;
26906;SDS011;14472;56.880;16.658;2023-05-07T01:25:56;2.40;;;2.10;;
26906;SDS011;14472;56.880;16.658;2023-05-07T01:28:22;5.80;;;2.10;;
26906;SDS011;14472;56.880;16.658;2023-05-07T01:30:54;3.10;;;2.13;;
26906;SDS011;14472;56.880;16.658;2023-05-07T01:33:26;4.47;;;2.33;;
26906;SDS011;14472;56.880;16.658;2023-05-07T01:35:57;3.40;;;2.20;;
26906;SDS011;14472;56.880;16.658;2023-05-07T01:38:27;2.40;;;2.17;;
26906;SDS011;14472;56.880;16.658;2023-05-07T01:40:54;6.60;;;2.57;;
26906;SDS011;14472;56.880;16.658;2023-05-07T01:43:21;4.93;;;2.63;;
26906;SDS011;14472;56.880;16.658;2023-05-07T01:45:46;3.77;;;2.10;;
26906;SDS011;14472;56.880;16.658;2023-05-07T01:48:14;2.53;;;2.20;;
26906;SDS011;14472;56.880;16.658;2023-05-07T01:50:41;5.20;;;2.20;;
26906;SDS011;14472;56.880;16.658;2023-05-07T01:53:08;2.80;;;1.97;;
26906;SDS011;14472;56.880;16.658;2023-05-07T01:55:33;3.83;;;2.17;;
26906;SDS011;14472;56.880;16.658;2023-05-07T01:58:01;4.33;;;2.20;;
26906;SDS011;14472;56.880;16.658;2023-05-07T02:00:27;5.00;;;2.30;;
26906;SDS011;14472;56.880;16.658;2023-05-07T02:02:54;3.40;;;2.40;;
26906;SDS011;14472;56.880;16.658;2023-05-07T02:05:19;2.83;;;2.10;;
26906;SDS011;14472;56.880;16.658;2023-05-07T02:07:45;3.07;;;2.07;;
26906;SDS011;14472;56.880;16.658;2023-05-07T02:10:11;4.33;;;2.03;;
26906;SDS011;14472;56.880;16.658;2023-05-07T02:12:37;2.43;;;2.07;;
26906;SDS011;14472;56.880;16.658;2023-05-07T02:15:03;2.70;;;2.00;;
26906;SDS011;14472;56.880;16.658;2023-05-07T02:17:29;4.27;;;2.60;;
26906;SDS011;14472;56.880;16.658;2023-05-07T02:19:57;2.83;;;2.20;;
26906;SDS011;14472;56.880;16.658;2023-05-07T02:22:22;4.53;;;2.57;;
26906;SDS011;14472;56.880;16.658;2023-05-07T02:24:48;3.63;;;2.20;;
26906;SDS011;14472;56.880;16.658;2023-05-07T02:27:14;3.10;;;2.10;;
26906;SDS011;14472;56.880;16.658;2023-05-07T02:29:40;2.63;;;2.10;;
26906;SDS011;14472;56.880;16.658;2023-05-07T02:32:05;5.47;;;2.60;;
26906;SDS011;14472;56.880;16.658;2023-05-07T02:34:31;3.40;;;2.30;;
26906;SDS011;14472;56.880;16.658;2023-05-07T02:36:57;3.17;;;2.30;;
26906;SDS011;14472;56.880;16.658;2023-05-07T02:39:22;3.63;;;2.27;;
26906;SDS011;14472;56.880;16.658;2023-05-07T02:41:48;2.27;;;2.07;;
26906;SDS011;14472;56.880;16.658;2023-05-07T02:44:14;3.63;;;2.30;;
26906;SDS011;14472;56.880;16.658;2023-05-07T02:46:40;4.77;;;2.30;;
26906;SDS011;14472;56.880;16.658;2023-05-07T02:49:05;4.70;;;2.70;;
26906;SDS011;14472;56.880;16.658;2023-05-07T02:51:31;5.57;;;2.20;;
26906;SDS011;14472;56.880;16.658;2023-05-07T02:53:57;3.70;;;2.40;;
26906;SDS011;14472;56.880;16.658;2023-05-07T02:56:25;4.57;;;2.60;;
26906;SDS011;14472;56.880;16.658;2023-05-07T02:58:51;5.23;;;2.40;;
26906;SDS011;14472;56.880;16.658;2023-05-07T03:01:17;3.77;;;2.13;;
26906;SDS011;14472;56.880;16.658;2023-05-07T03:03:43;2.50;;;2.20;;
26906;SDS011;14472;56.880;16.658;2023-05-07T03:06:09;3.53;;;2.40;;
26906;SDS011;14472;56.880;16.658;2023-05-07T03:08:35;4.80;;;2.70;;
26906;SDS011;14472;56.880;16.658;2023-05-07T03:11:01;4.87;;;2.50;;
26906;SDS011;14472;56.880;16.658;2023-05-07T03:13:27;4.90;;;2.40;;
26906;SDS011;14472;56.880;16.658;2023-05-07T03:15:53;3.23;;;2.03;;
26906;SDS011;14472;56.880;16.658;2023-05-07T03:18:19;3.63;;;2.43;;
26906;SDS011;14472;56.880;16.658;2023-05-07T03:20:45;4.13;;;2.70;;
26906;SDS011;14472;56.880;16.658;2023-05-07T03:23:13;3.60;;;2.60;;
26906;SDS011;14472;56.880;16.658;2023-05-07T03:25:38;4.97;;;2.93;;
26906;SDS011;14472;56.880;16.658;2023-05-07T03:28:04;4.97;;;2.80;;
26906;SDS011;14472;56.880;16.658;2023-05-07T03:30:30;6.63;;;3.27;;
26906;SDS011;14472;56.880;16.658;2023-05-07T03:32:56;4.33;;;3.00;;
26906;SDS011;14472;56.880;16.658;2023-05-07T03:35:22;4.50;;;2.60;;
26906;SDS011;14472;56.880;16.658;2023-05-07T03:37:47;3.73;;;3.10;;
26906;SDS011;14472;56.880;16.658;2023-05-07T03:40:13;5.00;;;2.80;;
26906;SDS011;14472;56.880;16.658;2023-05-07T03:42:39;7.77;;;2.90;;
26906;SDS011;14472;56.880;16.658;2023-05-07T03:45:05;6.27;;;2.87;;
26906;SDS011;14472;56.880;16.658;2023-05-07T03:47:31;5.80;;;3.00;;
26906;SDS011;14472;56.880;16.658;2023-05-07T03:49:57;6.63;;;2.97;;
26906;SDS011;14472;56.880;16.658;2023-05-07T03:52:22;6.07;;;2.73;;
26906;SDS011;14472;56.880;16.658;2023-05-07T03:54:51;5.27;;;3.20;;
26906;SDS011;14472;56.880;16.658;2023-05-07T03:57:19;5.47;;;2.73;;
26906;SDS011;14472;56.880;16.658;2023-05-07T03:59:45;3.63;;;2.20;;
26906;SDS011;14472;56.880;16.658;2023-05-07T04:02:11;8.10;;;2.77;;
26906;SDS011;14472;56.880;16.658;2023-05-07T04:04:37;6.23;;;2.87;;
26906;SDS011;14472;56.880;16.658;2023-05-07T04:07:03;4.63;;;2.63;;
26906;SDS011;14472;56.880;16.658;2023-05-07T04:09:29;7.30;;;2.90;;
26906;SDS011;14472;56.880;16.658;2023-05-07T04:11:55;5.17;;;2.60;;
26906;SDS011;14472;56.880;16.658;2023-05-07T04:14:21;6.63;;;2.50;;
26906;SDS011;14472;56.880;16.658;2023-05-07T04:16:46;2.93;;;2.47;;
26906;SDS011;14472;56.880;16.658;2023-05-07T04:19:12;6.30;;;2.80;;
26906;SDS011;14472;56.880;16.658;2023-05-07T04:21:38;11.93;;;2.93;;
26906;SDS011;14472;56.880;16.658;2023-05-07T04:24:04;4.43;;;2.73;;
26906;SDS011;14472;56.880;16.658;2023-05-07T04:26:29;5.23;;;2.80;;
26906;SDS011;14472;56.880;16.658;2023-05-07T04:28:56;7.70;;;3.07;;
26906;SDS011;14472;56.880;16.658;2023-05-07T04:31:24;6.67;;;3.00;;
26906;SDS011;14472;56.880;16.658;2023-05-07T04:33:49;6.37;;;2.60;;
26906;SDS011;14472;56.880;16.658;2023-05-07T04:36:16;6.07;;;3.00;;
26906;SDS011;14472;56.880;16.658;2023-05-07T04:38:42;4.07;;;2.67;;
26906;SDS011;14472;56.880;16.658;2023-05-07T04:41:08;4.43;;;2.70;;
26906;SDS011;14472;56.880;16.658;2023-05-07T04:43:34;4.77;;;3.00;;
26906;SDS011;14472;56.880;16.658;2023-05-07T04:46:00;5.27;;;2.90;;
26906;SDS011;14472;56.880;16.658;2023-05-07T04:48:26;5.70;;;2.77;;
26906;SDS011;14472;56.880;16.658;2023-05-07T04:50:52;5.90;;;3.00;;
26906;SDS011;14472;56.880;16.658;2023-05-07T04:53:18;8.70;;;3.00;;
26906;SDS011;14472;56.880;16.658;2023-05-07T04:55:44;8.53;;;3.17;;
26906;SDS011;14472;56.880;16.658;2023-05-07T04:58:10;3.20;;;2.47;;
26906;SDS011;14472;56.880;16.658;2023-05-07T05:00:37;4.43;;;3.03;;
26906;SDS011;14472;56.880;16.658;2023-05-07T05:03:04;4.40;;;2.80;;
26906;SDS011;14472;56.880;16.658;2023-05-07T05:05:31;5.57;;;2.70;;
26906;SDS011;14472;56.880;16.658;2023-05-07T05:07:56;7.00;;;3.07;;
26906;SDS011;14472;56.880;16.658;2023-05-07T05:10:22;5.80;;;2.73;;
26906;SDS011;14472;56.880;16.658;2023-05-07T05:12:48;5.70;;;2.60;;
26906;SDS011;14472;56.880;16.658;2023-05-07T05:15:14;5.53;;;2.43;;
26906;SDS011;14472;56.880;16.658;2023-05-07T05:17:40;4.23;;;2.50;;
26906;SDS011;14472;56.880;16.658;2023-05-07T05:20:05;5.07;;;2.30;;
26906;SDS011;14472;56.880;16.658;2023-05-07T05:22:32;7.97;;;3.10;;
26906;SDS011;14472;56.880;16.658;2023-05-07T05:24:58;5.53;;;2.67;;
26906;SDS011;14472;56.880;16.658;2023-05-07T05:27:23;3.40;;;2.60;;
26906;SDS011;14472;56.880;16.658;2023-05-07T05:29:49;4.23;;;2.63;;
26906;SDS011;14472;56.880;16.658;2023-05-07T05:32:15;5.50;;;2.40;;
26906;SDS011;14472;56.880;16.658;2023-05-07T05:34:41;3.73;;;2.57;;
26906;SDS011;14472;56.880;16.658;2023-05-07T05:37:06;4.53;;;2.43;;
26906;SDS011;14472;56.880;16.658;2023-05-07T05:39:32;5.97;;;2.30;;
26906;SDS011;14472;56.880;16.658;2023-05-07T05:41:58;3.53;;;2.57;;
26906;SDS011;14472;56.880;16.658;2023-05-07T05:44:23;3.50;;;2.00;;
26906;SDS011;14472;56.880;16.658;2023-05-07T05:46:50;2.47;;;2.10;;
26906;SDS011;14472;56.880;16.658;2023-05-07T05:49:16;3.40;;;2.00;;
26906;SDS011;14472;56.880;16.658;2023-05-07T05:51:41;4.87;;;2.37;;
26906;SDS011;14472;56.880;16.658;2023-05-07T05:54:07;4.17;;;2.30;;
26906;SDS011;14472;56.880;16.658;2023-05-07T05:56:33;4.47;;;2.00;;
26906;SDS011;14472;56.880;16.658;2023-05-07T05:58:59;4.50;;;2.40;;
26906;SDS011;14472;56.880;16.658;2023-05-07T06:01:25;3.60;;;2.27;;
26906;SDS011;14472;56.880;16.658;2023-05-07T06:03:50;4.87;;;2.37;;
26906;SDS011;14472;56.880;16.658;2023-05-07T06:06:16;5.77;;;2.20;;
26906;SDS011;14472;56.880;16.658;2023-05-07T06:08:42;3.30;;;2.10;;
26906;SDS011;14472;56.880;16.658;2023-05-07T06:11:08;4.43;;;2.00;;
26906;SDS011;14472;56.880;16.658;2023-05-07T06:13:33;3.33;;;2.03;;
26906;SDS011;14472;56.880;16.658;2023-05-07T06:15:59;2.80;;;2.03;;
26906;SDS011;14472;56.880;16.658;2023-05-07T06:18:25;6.80;;;2.20;;
26906;SDS011;14472;56.880;16.658;2023-05-07T06:20:51;4.40;;;2.20;;
26906;SDS011;14472;56.880;16.658;2023-05-07T06:23:17;4.40;;;2.20;;
26906;SDS011;14472;56.880;16.658;2023-05-07T06:25:49;3.90;;;2.20;;
26906;SDS011;14472;56.880;16.658;2023-05-07T06:28:16;5.07;;;2.10;;
26906;SDS011;14472;56.880;16.658;2023-05-07T06:30:41;2.90;;;1.90;;
26906;SDS011;14472;56.880;16.658;2023-05-07T06:33:07;5.80;;;2.50;;
26906;SDS011;14472;56.880;16.658;2023-05-07T06:35:33;4.60;;;2.57;;
26906;SDS011;14472;56.880;16.658;2023-05-07T06:37:59;3.07;;;1.83;;
26906;SDS011;14472;56.880;16.658;2023-05-07T06:40:25;3.70;;;2.30;;
26906;SDS011;14472;56.880;16.658;2023-05-07T06:42:51;6.50;;;2.03;;
26906;SDS011;14472;56.880;16.658;2023-05-07T06:45:17;3.83;;;2.30;;
26906;SDS011;14472;56.880;16.658;2023-05-07T06:47:44;3.87;;;2.00;;
26906;SDS011;14472;56.880;16.658;2023-05-07T06:50:10;4.03;;;2.00;;
26906;SDS011;14472;56.880;16.658;2023-05-07T06:52:35;5.13;;;2.00;;
26906;SDS011;14472;56.880;16.658;2023-05-07T06:55:01;4.03;;;1.97;;
26906;SDS011;14472;56.880;16.658;2023-05-07T06:57:27;4.70;;;1.87;;
26906;SDS011;14472;56.880;16.658;2023-05-07T06:59:53;5.60;;;1.87;;
26906;SDS011;14472;56.880;16.658;2023-05-07T07:02:18;2.63;;;1.80;;
26906;SDS011;14472;56.880;16.658;2023-05-07T07:04:44;3.27;;;1.70;;
26906;SDS011;14472;56.880;16.658;2023-05-07T07:07:10;7.57;;;2.17;;
26906;SDS011;14472;56.880;16.658;2023-05-07T07:09:36;4.13;;;2.63;;
26906;SDS011;14472;56.880;16.658;2023-05-07T07:12:02;3.37;;;1.80;;
26906;SDS011;14472;56.880;16.658;2023-05-07T07:14:27;5.80;;;1.70;;
26906;SDS011;14472;56.880;16.658;2023-05-07T07:16:53;2.67;;;1.77;;
26906;SDS011;14472;56.880;16.658;2023-05-07T07:19:19;4.97;;;1.77;;
26906;SDS011;14472;56.880;16.658;2023-05-07T07:21:45;3.00;;;2.00;;
26906;SDS011;14472;56.880;16.658;2023-05-07T07:24:11;4.40;;;1.87;;
26906;SDS011;14472;56.880;16.658;2023-05-07T07:26:38;3.07;;;1.70;;
26906;SDS011;14472;56.880;16.658;2023-05-07T07:29:05;6.07;;;1.70;;
26906;SDS011;14472;56.880;16.658;2023-05-07T07:31:31;6.40;;;2.03;;
26906;SDS011;14472;56.880;16.658;2023-05-07T07:33:57;4.10;;;1.70;;
26906;SDS011;14472;56.880;16.658;2023-05-07T07:36:23;2.63;;;1.53;;
26906;SDS011;14472;56.880;16.658;2023-05-07T07:38:49;3.07;;;1.77;;
26906;SDS011;14472;56.880;16.658;2023-05-07T07:41:14;3.60;;;1.70;;
26906;SDS011;14472;56.880;16.658;2023-05-07T07:43:40;7.37;;;1.90;;
26906;SDS011;14472;56.880;16.658;2023-05-07T07:46:06;3.87;;;2.10;;
26906;SDS011;14472;56.880;16.658;2023-05-07T07:48:32;4.97;;;2.00;;
26906;SDS011;14472;56.880;16.658;2023-05-07T07:50:58;2.77;;;1.77;;
26906;SDS011;14472;56.880;16.658;2023-05-07T07:53:23;5.37;;;1.90;;
26906;SDS011;14472;56.880;16.658;2023-05-07T07:55:50;3.20;;;1.90;;
26906;SDS011;14472;56.880;16.658;2023-05-07T07:58:16;5.50;;;1.97;;
26906;SDS011;14472;56.880;16.658;2023-05-07T08:00:41;3.10;;;2.10;;
26906;SDS011;14472;56.880;16.658;2023-05-07T08:03:10;4.23;;;1.70;;
26906;SDS011;14472;56.880;16.658;2023-05-07T08:05:36;5.23;;;1.70;;
26906;SDS011;14472;56.880;16.658;2023-05-07T08:08:03;4.87;;;1.60;;
26906;SDS011;14472;56.880;16.658;2023-05-07T08:10:29;5.93;;;1.90;;
26906;SDS011;14472;56.880;16.658;2023-05-07T08:12:58;5.57;;;1.60;;
26906;SDS011;14472;56.880;16.658;2023-05-07T08:15:24;1.93;;;1.40;;
26906;SDS011;14472;56.880;16.658;2023-05-07T08:17:50;2.17;;;1.53;;
26906;SDS011;14472;56.880;16.658;2023-05-07T08:20:16;4.33;;;2.10;;
26906;SDS011;14472;56.880;16.658;2023-05-07T08:22:41;4.03;;;1.97;;
26906;SDS011;14472;56.880;16.658;2023-05-07T08:25:07;2.40;;;2.00;;
26906;SDS011;14472;56.880;16.658;2023-05-07T08:27:33;3.63;;;1.87;;
26906;SDS011;14472;56.880;16.658;2023-05-07T08:29:59;2.63;;;1.90;;
26906;SDS011;14472;56.880;16.658;2023-05-07T08:32:25;4.07;;;1.80;;
26906;SDS011;14472;56.880;16.658;2023-05-07T08:34:50;3.10;;;1.80;;
26906;SDS011;14472;56.880;16.658;2023-05-07T08:37:16;3.17;;;1.40;;
26906;SDS011;14472;56.880;16.658;2023-05-07T08:39:42;6.13;;;2.03;;
26906;SDS011;14472;56.880;16.658;2023-05-07T08:42:08;2.10;;;1.70;;
26906;SDS011;14472;56.880;16.658;2023-05-07T08:44:36;2.87;;;1.70;;
26906;SDS011;14472;56.880;16.658;2023-05-07T08:47:06;3.50;;;1.63;;
26906;SDS011;14472;56.880;16.658;2023-05-07T08:49:33;2.40;;;1.50;;
26906;SDS011;14472;56.880;16.658;2023-05-07T08:51:59;2.30;;;1.57;;
26906;SDS011;14472;56.880;16.658;2023-05-07T08:54:25;2.80;;;2.07;;
26906;SDS011;14472;56.880;16.658;2023-05-07T08:56:52;4.00;;;1.57;;
26906;SDS011;14472;56.880;16.658;2023-05-07T08:59:18;2.80;;;1.60;;
26906;SDS011;14472;56.880;16.658;2023-05-07T09:01:44;3.57;;;1.63;;
26906;SDS011;14472;56.880;16.658;2023-05-07T09:04:10;3.43;;;1.70;;
26906;SDS011;14472;56.880;16.658;2023-05-07T09:06:37;5.30;;;1.80;;
26906;SDS011;14472;56.880;16.658;2023-05-07T09:09:06;3.43;;;1.80;;
26906;SDS011;14472;56.880;16.658;2023-05-07T09:11:33;3.17;;;1.60;;
26906;SDS011;14472;56.880;16.658;2023-05-07T09:13:58;2.60;;;1.63;;
26906;SDS011;14472;56.880;16.658;2023-05-07T09:16:26;4.10;;;1.90;;
26906;SDS011;14472;56.880;16.658;2023-05-07T09:18:54;3.17;;;1.50;;
26906;SDS011;14472;56.880;16.658;2023-05-07T09:21:22;3.17;;;1.77;;
26906;SDS011;14472;56.880;16.658;2023-05-07T09:23:50;4.00;;;1.80;;
26906;SDS011;14472;56.880;16.658;2023-05-07T09:26:16;4.57;;;1.80;;
26906;SDS011;14472;56.880;16.658;2023-05-07T09:28:42;3.27;;;1.90;;
26906;SDS011;14472;56.880;16.658;2023-05-07T09:31:09;2.90;;;1.63;;
26906;SDS011;14472;56.880;16.658;2023-05-07T09:33:35;5.77;;;1.80;;
26906;SDS011;14472;56.880;16.658;2023-05-07T09:36:05;6.27;;;2.20;;
26906;SDS011;14472;56.880;16.658;2023-05-07T09:38:32;3.90;;;1.90;;
26906;SDS011;14472;56.880;16.658;2023-05-07T09:41:09;3.10;;;1.80;;
26906;SDS011;14472;56.880;16.658;2023-05-07T09:43:36;3.97;;;1.60;;
26906;SDS011;14472;56.880;16.658;2023-05-07T09:46:03;7.13;;;1.50;;
26906;SDS011;14472;56.880;16.658;2023-05-07T09:48:38;4.70;;;1.67;;
26906;SDS011;14472;56.880;16.658;2023-05-07T09:51:28;4.57;;;1.67;;
26906;SDS011;14472;56.880;16.658;2023-05-07T09:53:54;2.73;;;1.70;;
26906;SDS011;14472;56.880;16.658;2023-05-07T09:56:22;2.80;;;1.50;;
26906;SDS011;14472;56.880;16.658;2023-05-07T09:58:49;2.53;;;1.70;;
26906;SDS011;14472;56.880;16.658;2023-05-07T10:01:17;2.90;;;1.80;;
26906;SDS011;14472;56.880;16.658;2023-05-07T10:03:47;3.53;;;1.63;;
26906;SDS011;14472;56.880;16.658;2023-05-07T10:06:15;3.30;;;1.80;;
26906;SDS011;14472;56.880;16.658;2023-05-07T10:08:42;5.30;;;1.67;;
26906;SDS011;14472;56.880;16.658;2023-05-07T10:11:09;4.57;;;2.07;;
26906;SDS011;14472;56.880;16.658;2023-05-07T10:13:35;4.70;;;1.70;;
26906;SDS011;14472;56.880;16.658;2023-05-07T10:16:05;3.03;;;2.00;;
26906;SDS011;14472;56.880;16.658;2023-05-07T10:18:31;1.87;;;1.40;;
26906;SDS011;14472;56.880;16.658;2023-05-07T10:21:07;1.83;;;1.30;;
26906;SDS011;14472;56.880;16.658;2023-05-07T10:23:36;3.63;;;1.50;;
26906;SDS011;14472;56.880;16.658;2023-05-07T10:26:04;3.27;;;1.50;;
26906;SDS011;14472;56.880;16.658;2023-05-07T10:28:34;2.93;;;1.60;;
26906;SDS011;14472;56.880;16.658;2023-05-07T10:31:50;2.83;;;1.50;;
26906;SDS011;14472;56.880;16.658;2023-05-07T10:33:55;4.53;;;1.90;;
26906;SDS011;14472;56.880;16.658;2023-05-07T10:36:22;1.97;;;1.20;;
26906;SDS011;14472;56.880;16.658;2023-05-07T10:38:49;3.07;;;1.50;;
26906;SDS011;14472;56.880;16.658;2023-05-07T10:41:15;2.87;;;1.33;;
26906;SDS011;14472;56.880;16.658;2023-05-07T10:43:44;2.90;;;1.40;;
26906;SDS011;14472;56.880;16.658;2023-05-07T10:51:28;2.97;;;1.33;;
26906;SDS011;14472;56.880;16.658;2023-05-07T10:56:38;5.70;;;1.70;;
26906;SDS011;14472;56.880;16.658;2023-05-07T10:59:50;3.30;;;1.70;;
26906;SDS011;14472;56.880;16.658;2023-05-07T11:01:59;4.10;;;1.63;;
26906;SDS011;14472;56.880;16.658;2023-05-07T11:04:31;2.03;;;1.37;;
26906;SDS011;14472;56.880;16.658;2023-05-07T11:15:06;3.50;;;1.47;;
26906;SDS011;14472;56.880;16.658;2023-05-07T11:20:21;5.23;;;1.70;;
26906;SDS011;14472;56.880;16.658;2023-05-07T11:26:12;3.60;;;1.67;;
26906;SDS011;14472;56.880;16.658;2023-05-07T11:28:41;1.53;;;1.40;;
26906;SDS011;14472;56.880;16.658;2023-05-07T11:34:30;2.93;;;1.70;;
26906;SDS011;14472;56.880;16.658;2023-05-07T11:36:57;2.60;;;1.30;;
26906;SDS011;14472;56.880;16.658;2023-05-07T11:42:32;1.67;;;1.30;;
26906;SDS011;14472;56.880;16.658;2023-05-07T11:45:36;3.03;;;1.70;;
26906;SDS011;14472;56.880;16.658;2023-05-07T11:48:02;3.88;;;1.40;;
26906;SDS011;14472;56.880;16.658;2023-05-07T11:50:28;3.07;;;1.43;;
26906;SDS011;14472;56.880;16.658;2023-05-07T11:52:57;2.20;;;1.40;;
26906;SDS011;14472;56.880;16.658;2023-05-07T11:55:23;3.73;;;1.40;;
26906;SDS011;14472;56.880;16.658;2023-05-07T11:57:52;3.70;;;1.37;;
26906;SDS011;14472;56.880;16.658;2023-05-07T12:00:18;3.23;;;1.53;;
26906;SDS011;14472;56.880;16.658;2023-05-07T12:05:37;3.43;;;1.30;;
26906;SDS011;14472;56.880;16.658;2023-05-07T12:08:07;2.60;;;1.43;;
26906;SDS011;14472;56.880;16.658;2023-05-07T12:10:33;2.97;;;1.50;;
26906;SDS011;14472;56.880;16.658;2023-05-07T12:13:00;3.17;;;1.40;;
26906;SDS011;14472;56.880;16.658;2023-05-07T12:15:26;1.63;;;1.37;;
26906;SDS011;14472;56.880;16.658;2023-05-07T12:17:53;2.90;;;1.60;;
26906;SDS011;14472;56.880;16.658;2023-05-07T12:20:19;5.78;;;1.77;;
26906;SDS011;14472;56.880;16.658;2023-05-07T12:22:45;3.83;;;1.50;;
26906;SDS011;14472;56.880;16.658;2023-05-07T12:25:13;1.80;;;1.53;;
26906;SDS011;14472;56.880;16.658;2023-05-07T12:27:50;2.53;;;1.60;;
26906;SDS011;14472;56.880;16.658;2023-05-07T12:30:17;3.05;;;1.50;;
26906;SDS011;14472;56.880;16.658;2023-05-07T12:32:44;2.70;;;1.50;;
26906;SDS011;14472;56.880;16.658;2023-05-07T12:35:10;4.90;;;1.70;;
26906;SDS011;14472;56.880;16.658;2023-05-07T12:37:42;3.10;;;1.33;;
26906;SDS011;14472;56.880;16.658;2023-05-07T12:40:09;2.20;;;1.40;;
26906;SDS011;14472;56.880;16.658;2023-05-07T12:42:36;2.43;;;1.33;;
26906;SDS011;14472;56.880;16.658;2023-05-07T12:45:12;2.72;;;1.83;;
26906;SDS011;14472;56.880;16.658;2023-05-07T12:47:43;1.87;;;1.30;;
26906;SDS011;14472;56.880;16.658;2023-05-07T12:50:10;3.00;;;1.60;;
26906;SDS011;14472;56.880;16.658;2023-05-07T12:52:54;2.87;;;1.50;;
26906;SDS011;14472;56.880;16.658;2023-05-07T12:55:20;2.10;;;1.20;;
26906;SDS011;14472;56.880;16.658;2023-05-07T12:57:49;4.30;;;1.33;;
26906;SDS011;14472;56.880;16.658;2023-05-07T13:00:16;2.60;;;1.30;;
26906;SDS011;14472;56.880;16.658;2023-05-07T13:02:43;4.07;;;1.60;;
26906;SDS011;14472;56.880;16.658;2023-05-07T13:05:12;1.50;;;1.40;;
26906;SDS011;14472;56.880;16.658;2023-05-07T13:07:38;2.10;;;1.40;;
26906;SDS011;14472;56.880;16.658;2023-05-07T13:10:07;3.45;;;1.90;;
26906;SDS011;14472;56.880;16.658;2023-05-07T13:12:36;4.20;;;1.58;;
26906;SDS011;14472;56.880;16.658;2023-05-07T13:15:02;3.20;;;1.17;;
26906;SDS011;14472;56.880;16.658;2023-05-07T13:17:28;3.42;;;1.52;;
26906;SDS011;14472;56.880;16.658;2023-05-07T13:19:55;4.67;;;1.50;;
26906;SDS011;14472;56.880;16.658;2023-05-07T13:22:21;3.92;;;1.30;;
26906;SDS011;14472;56.880;16.658;2023-05-07T13:24:47;2.15;;;1.38;;
26906;SDS011;14472;56.880;16.658;2023-05-07T13:27:12;3.70;;;1.42;;
26906;SDS011;14472;56.880;16.658;2023-05-07T13:29:38;2.07;;;1.50;;
26906;SDS011;14472;56.880;16.658;2023-05-07T13:32:04;2.45;;;1.58;;
26906;SDS011;14472;56.880;16.658;2023-05-07T13:34:29;2.73;;;1.80;;
26906;SDS011;14472;56.880;16.658;2023-05-07T13:36:55;3.47;;;1.67;;
26906;SDS011;14472;56.880;16.658;2023-05-07T13:39:21;3.38;;;1.58;;
26906;SDS011;14472;56.880;16.658;2023-05-07T13:41:47;5.28;;;1.35;;
26906;SDS011;14472;56.880;16.658;2023-05-07T13:44:13;5.85;;;1.50;;
26906;SDS011;14472;56.880;16.658;2023-05-07T13:46:39;3.03;;;1.30;;
26906;SDS011;14472;56.880;16.658;2023-05-07T13:49:04;2.78;;;1.20;;
26906;SDS011;14472;56.880;16.658;2023-05-07T13:51:30;5.68;;;1.50;;
26906;SDS011;14472;56.880;16.658;2023-05-07T13:53:56;2.17;;;1.45;;
26906;SDS011;14472;56.880;16.658;2023-05-07T13:56:23;3.03;;;1.60;;
26906;SDS011;14472;56.880;16.658;2023-05-07T13:58:49;2.75;;;1.25;;
26906;SDS011;14472;56.880;16.658;2023-05-07T14:01:14;2.75;;;1.20;;
26906;SDS011;14472;56.880;16.658;2023-05-07T14:03:40;2.33;;;1.40;;
26906;SDS011;14472;56.880;16.658;2023-05-07T14:06:06;3.03;;;1.53;;
26906;SDS011;14472;56.880;16.658;2023-05-07T14:08:32;3.03;;;1.70;;
26906;SDS011;14472;56.880;16.658;2023-05-07T14:10:57;3.33;;;1.77;;
26906;SDS011;14472;56.880;16.658;2023-05-07T14:13:23;1.88;;;1.40;;
26906;SDS011;14472;56.880;16.658;2023-05-07T14:15:50;1.92;;;1.20;;
26906;SDS011;14472;56.880;16.658;2023-05-07T14:18:16;1.48;;;1.30;;
26906;SDS011;14472;56.880;16.658;2023-05-07T14:20:42;2.83;;;1.50;;
26906;SDS011;14472;56.880;16.658;2023-05-07T14:23:11;1.30;;;1.17;;
26906;SDS011;14472;56.880;16.658;2023-05-07T14:25:37;1.30;;;1.20;;
26906;SDS011;14472;56.880;16.658;2023-05-07T14:28:03;2.80;;;1.52;;
26906;SDS011;14472;56.880;16.658;2023-05-07T14:30:29;3.97;;;1.40;;
26906;SDS011;14472;56.880;16.658;2023-05-07T14:32:55;3.40;;;1.50;;
26906;SDS011;14472;56.880;16.658;2023-05-07T14:35:20;3.92;;;1.50;;
26906;SDS011;14472;56.880;16.658;2023-05-07T14:37:49;3.63;;;1.27;;
26906;SDS011;14472;56.880;16.658;2023-05-07T14:40:15;1.87;;;1.40;;
26906;SDS011;14472;56.880;16.658;2023-05-07T14:42:41;4.10;;;1.50;;
26906;SDS011;14472;56.880;16.658;2023-05-07T14:45:07;2.33;;;1.40;;
26906;SDS011;14472;56.880;16.658;2023-05-07T14:47:39;3.65;;;1.20;;
26906;SDS011;14472;56.880;16.658;2023-05-07T14:50:08;3.87;;;1.53;;
26906;SDS011;14472;56.880;16.658;2023-05-07T14:52:34;2.50;;;1.40;;
26906;SDS011;14472;56.880;16.658;2023-05-07T14:55:00;3.13;;;1.50;;
26906;SDS011;14472;56.880;16.658;2023-05-07T14:57:26;1.70;;;1.57;;
26906;SDS011;14472;56.880;16.658;2023-05-07T14:59:52;2.53;;;1.57;;
26906;SDS011;14472;56.880;16.658;2023-05-07T15:02:17;5.27;;;2.77;;